sensor_id;sensor_type;location;lat;lon;timestamp;pressure;altitude;pressure_sealevel;temperature;humidity
39443;BME280;25147;52.142;9.960;2023-05-03T00:00:12;101731.03;;;4.21;89.42
39443;BME280;25147;52.142;9.960;2023-05-03T00:02:42;101762.50;;;4.34;89.45
39443;BME280;25147;52.142;9.960;2023-05-03T00:05:10;101817.22;;;4.70;89.43
39443;BME280;25147;52.142;9.960;2023-05-03T00:07:37;101863.03;;;4.98;89.51
39443;BME280;25147;52.142;9.960;2023-05-03T00:10:06;101856.09;;;4.97;89.60
39443;BME280;25147;52.142;9.960;2023-05-03T00:12:34;101631.44;;;3.57;88.97
39443;BME280;25147;52.142;9.960;2023-05-03T00:15:01;101825.81;;;4.69;89.11
39443;BME280;25147;52.142;9.960;2023-05-03T00:17:28;101860.06;;;4.86;89.22
39443;BME280;25147;52.142;9.960;2023-05-03T00:19:56;101853.91;;;4.82;89.23
39443;BME280;25147;52.142;9.960;2023-05-03T00:22:24;101867.63;;;4.78;89.56
39443;BME280;25147;52.142;9.960;2023-05-03T00:24:51;101496.50;;;2.65;89.44
39443;BME280;25147;52.142;9.960;2023-05-03T00:27:18;101857.00;;;4.71;89.89
39443;BME280;25147;52.142;9.960;2023-05-03T00:29:45;101860.34;;;4.67;90.02
39443;BME280;25147;52.142;9.960;2023-05-03T00:32:11;101802.88;;;4.26;90.16
39443;BME280;25147;52.142;9.960;2023-05-03T00:34:38;101854.03;;;4.58;90.27
39443;BME280;25147;52.142;9.960;2023-05-03T00:37:06;101736.84;;;3.87;90.45
39443;BME280;25147;52.142;9.960;2023-05-03T00:39:33;101883.25;;;4.53;90.66
39443;BME280;25147;52.142;9.960;2023-05-03T00:42:02;101819.25;;;4.25;90.97
39443;BME280;25147;52.142;9.960;2023-05-03T00:44:29;101735.66;;;3.77;91.30
39443;BME280;25147;52.142;9.960;2023-05-03T00:46:56;101854.41;;;4.43;91.20
39443;BME280;25147;52.142;9.960;2023-05-03T00:49:23;101860.38;;;4.41;91.46
39443;BME280;25147;52.142;9.960;2023-05-03T00:51:51;101741.16;;;3.61;91.58
39443;BME280;25147;52.142;9.960;2023-05-03T00:54:20;101852.47;;;4.36;92.18
39443;BME280;25147;52.142;9.960;2023-05-03T00:56:47;101865.38;;;4.35;92.29
39443;BME280;25147;52.142;9.960;2023-05-03T00:59:14;101873.06;;;4.32;92.53
39443;BME280;25147;52.142;9.960;2023-05-03T01:01:41;101762.38;;;3.76;92.42
39443;BME280;25147;52.142;9.960;2023-05-03T01:04:07;101859.97;;;4.29;92.56
39443;BME280;25147;52.142;9.960;2023-05-03T01:06:40;101653.78;;;3.03;92.81
39443;BME280;25147;52.142;9.960;2023-05-03T01:09:14;101766.47;;;3.70;92.88
39443;BME280;25147;52.142;9.960;2023-05-03T01:11:48;101852.13;;;4.26;92.99
39443;BME280;25147;52.142;9.960;2023-05-03T01:14:23;101718.84;;;3.39;92.89
39443;BME280;25147;52.142;9.960;2023-05-03T01:16:59;101855.47;;;4.23;92.84
39443;BME280;25147;52.142;9.960;2023-05-03T01:19:32;101685.38;;;3.19;93.09
39443;BME280;25147;52.142;9.960;2023-05-03T01:22:16;101828.06;;;4.04;93.05
39443;BME280;25147;52.142;9.960;2023-05-03T01:24:50;101586.34;;;2.48;92.65
39443;BME280;25147;52.142;9.960;2023-05-03T01:27:19;101843.03;;;4.13;92.89
39443;BME280;25147;52.142;9.960;2023-05-03T01:29:46;101768.66;;;3.57;93.12
39443;BME280;25147;52.142;9.960;2023-05-03T01:32:18;101539.09;;;2.27;93.16
39443;BME280;25147;52.142;9.960;2023-05-03T01:34:50;101603.13;;;2.59;93.08
39443;BME280;25147;52.142;9.960;2023-05-03T01:37:20;101686.41;;;2.99;92.85
39443;BME280;25147;52.142;9.960;2023-05-03T01:39:52;101756.25;;;3.23;92.75
39443;BME280;25147;52.142;9.960;2023-05-03T01:42:23;101860.28;;;3.87;92.96
39443;BME280;25147;52.142;9.960;2023-05-03T01:44:51;101781.41;;;3.27;92.97
39443;BME280;25147;52.142;9.960;2023-05-03T01:47:19;101677.75;;;2.73;93.59
39443;BME280;25147;52.142;9.960;2023-05-03T01:49:47;101869.41;;;3.75;93.47
39443;BME280;25147;52.142;9.960;2023-05-03T01:52:14;101619.19;;;2.27;93.43
39443;BME280;25147;52.142;9.960;2023-05-03T01:54:41;101635.78;;;2.33;93.24
39443;BME280;25147;52.142;9.960;2023-05-03T01:57:07;101863.09;;;3.67;94.13
39443;BME280;25147;52.142;9.960;2023-05-03T01:59:36;101663.03;;;2.48;93.55
39443;BME280;25147;52.142;9.960;2023-05-03T02:02:03;101537.81;;;1.46;93.68
39443;BME280;25147;52.142;9.960;2023-05-03T02:04:30;101882.72;;;3.60;93.67
39443;BME280;25147;52.142;9.960;2023-05-03T02:06:56;101905.09;;;3.58;93.96
39443;BME280;25147;52.142;9.960;2023-05-03T02:09:24;101871.34;;;3.57;93.58
39443;BME280;25147;52.142;9.960;2023-05-03T02:11:52;101706.53;;;2.59;93.54
39443;BME280;25147;52.142;9.960;2023-05-03T02:14:19;101729.16;;;2.65;93.76
39443;BME280;25147;52.142;9.960;2023-05-03T02:16:47;101873.72;;;3.51;94.19
39443;BME280;25147;52.142;9.960;2023-05-03T02:19:14;101875.88;;;3.38;94.17
39443;BME280;25147;52.142;9.960;2023-05-03T02:21:40;101803.78;;;2.78;94.06
39443;BME280;25147;52.142;9.960;2023-05-03T02:24:07;101747.84;;;2.58;94.14
39443;BME280;25147;52.142;9.960;2023-05-03T02:26:34;101786.13;;;2.91;94.49
39443;BME280;25147;52.142;9.960;2023-05-03T02:29:01;101738.50;;;2.61;94.49
39443;BME280;25147;52.142;9.960;2023-05-03T02:31:28;101884.66;;;3.44;94.45
39443;BME280;25147;52.142;9.960;2023-05-03T02:33:56;101723.06;;;2.40;94.33
39443;BME280;25147;52.142;9.960;2023-05-03T02:36:23;101899.22;;;3.40;94.16
39443;BME280;25147;52.142;9.960;2023-05-03T02:38:50;101883.63;;;3.38;94.26
39443;BME280;25147;52.142;9.960;2023-05-03T02:41:17;101898.22;;;3.36;94.28
39443;BME280;25147;52.142;9.960;2023-05-03T02:43:44;101847.09;;;3.07;94.00
39443;BME280;25147;52.142;9.960;2023-05-03T02:46:11;101847.56;;;2.96;93.86
39443;BME280;25147;52.142;9.960;2023-05-03T02:48:37;101595.78;;;1.33;93.70
39443;BME280;25147;52.142;9.960;2023-05-03T02:51:06;101919.81;;;3.14;93.76
39443;BME280;25147;52.142;9.960;2023-05-03T02:53:32;101932.47;;;3.07;93.76
39443;BME280;25147;52.142;9.960;2023-05-03T02:55:59;101903.84;;;3.02;93.99
39443;BME280;25147;52.142;9.960;2023-05-03T02:58:26;101804.78;;;2.37;94.01
39443;BME280;25147;52.142;9.960;2023-05-03T03:00:53;101733.25;;;1.92;94.19
39443;BME280;25147;52.142;9.960;2023-05-03T03:03:20;101894.56;;;2.64;94.67
39443;BME280;25147;52.142;9.960;2023-05-03T03:05:46;101828.41;;;2.25;95.04
39443;BME280;25147;52.142;9.960;2023-05-03T03:08:16;101714.94;;;1.65;95.14
39443;BME280;25147;52.142;9.960;2023-05-03T03:10:44;101889.88;;;2.76;95.38
39443;BME280;25147;52.142;9.960;2023-05-03T03:13:11;101697.09;;;1.50;95.73
39443;BME280;25147;52.142;9.960;2023-05-03T03:15:38;101931.41;;;2.79;96.06
39443;BME280;25147;52.142;9.960;2023-05-03T03:18:05;101727.00;;;1.66;95.78
39443;BME280;25147;52.142;9.960;2023-05-03T03:20:31;101857.81;;;2.50;95.99
39443;BME280;25147;52.142;9.960;2023-05-03T03:22:58;101795.09;;;2.10;95.90
39443;BME280;25147;52.142;9.960;2023-05-03T03:25:27;101742.91;;;1.75;95.89
39443;BME280;25147;52.142;9.960;2023-05-03T03:27:54;101903.66;;;2.75;95.83
39443;BME280;25147;52.142;9.960;2023-05-03T03:30:21;101916.97;;;2.63;95.70
39443;BME280;25147;52.142;9.960;2023-05-03T03:32:48;101839.00;;;2.31;95.51
39443;BME280;25147;52.142;9.960;2023-05-03T03:35:15;101933.50;;;2.67;95.58
39443;BME280;25147;52.142;9.960;2023-05-03T03:37:42;101923.88;;;2.64;95.50
39443;BME280;25147;52.142;9.960;2023-05-03T03:40:10;101454.88;;;-0.12;95.07
39443;BME280;25147;52.142;9.960;2023-05-03T03:42:39;101883.88;;;2.33;95.64
39443;BME280;25147;52.142;9.960;2023-05-03T03:45:06;101861.88;;;2.22;95.88
39443;BME280;25147;52.142;9.960;2023-05-03T03:47:33;101826.47;;;1.98;96.09
39443;BME280;25147;52.142;9.960;2023-05-03T03:50:00;101861.81;;;1.99;96.12
39443;BME280;25147;52.142;9.960;2023-05-03T03:52:27;101898.31;;;2.49;96.32
39443;BME280;25147;52.142;9.960;2023-05-03T03:54:54;101787.16;;;1.85;97.04
39443;BME280;25147;52.142;9.960;2023-05-03T03:57:21;101815.00;;;1.92;96.90
39443;BME280;25147;52.142;9.960;2023-05-03T03:59:50;101777.41;;;1.77;97.18
39443;BME280;25147;52.142;9.960;2023-05-03T04:02:17;101840.22;;;1.97;97.04
39443;BME280;25147;52.142;9.960;2023-05-03T04:04:44;101605.53;;;0.77;97.10
39443;BME280;25147;52.142;9.960;2023-05-03T04:07:11;101873.22;;;2.26;97.44
39443;BME280;25147;52.142;9.960;2023-05-03T04:09:38;101807.50;;;1.98;97.23
39443;BME280;25147;52.142;9.960;2023-05-03T04:12:05;101866.41;;;2.28;97.24
39443;BME280;25147;52.142;9.960;2023-05-03T04:14:32;101803.06;;;1.95;97.30
39443;BME280;25147;52.142;9.960;2023-05-03T04:17:00;101905.47;;;2.56;97.52
39443;BME280;25147;52.142;9.960;2023-05-03T04:19:29;101899.50;;;2.57;97.38
39443;BME280;25147;52.142;9.960;2023-05-03T04:21:56;101738.22;;;1.46;97.36
39443;BME280;25147;52.142;9.960;2023-05-03T04:24:23;101933.16;;;2.59;97.24
39443;BME280;25147;52.142;9.960;2023-05-03T04:26:50;101914.16;;;2.58;97.13
39443;BME280;25147;52.142;9.960;2023-05-03T04:29:16;101505.38;;;0.25;97.11
39443;BME280;25147;52.142;9.960;2023-05-03T04:31:44;101806.94;;;2.05;96.77
39443;BME280;25147;52.142;9.960;2023-05-03T04:34:12;101825.16;;;2.08;96.85
39443;BME280;25147;52.142;9.960;2023-05-03T04:36:40;101917.22;;;2.69;96.90
39443;BME280;25147;52.142;9.960;2023-05-03T04:39:10;101552.38;;;0.60;96.40
39443;BME280;25147;52.142;9.960;2023-05-03T04:41:37;101662.53;;;1.05;95.74
39443;BME280;25147;52.142;9.960;2023-05-03T04:44:04;101847.38;;;2.26;95.95
39443;BME280;25147;52.142;9.960;2023-05-03T04:46:31;101921.53;;;2.70;95.91
39443;BME280;25147;52.142;9.960;2023-05-03T04:48:58;101922.63;;;2.75;96.17
39443;BME280;25147;52.142;9.960;2023-05-03T04:51:30;101944.19;;;2.76;96.48
39443;BME280;25147;52.142;9.960;2023-05-03T04:53:58;101627.13;;;1.00;96.13
39443;BME280;25147;52.142;9.960;2023-05-03T04:56:25;101797.81;;;1.92;96.25
39443;BME280;25147;52.142;9.960;2023-05-03T04:58:54;101776.72;;;1.82;96.47
39443;BME280;25147;52.142;9.960;2023-05-03T05:01:20;101756.53;;;1.73;96.81
39443;BME280;25147;52.142;9.960;2023-05-03T05:03:51;101868.28;;;2.32;96.56
39443;BME280;25147;52.142;9.960;2023-05-03T05:06:18;101747.59;;;1.65;96.36
39443;BME280;25147;52.142;9.960;2023-05-03T05:08:49;101745.00;;;1.65;96.79
39443;BME280;25147;52.142;9.960;2023-05-03T05:11:16;101592.75;;;0.80;97.01
39443;BME280;25147;52.142;9.960;2023-05-03T05:13:46;101919.09;;;2.73;97.38
39443;BME280;25147;52.142;9.960;2023-05-03T05:16:13;101916.69;;;2.78;97.34
39443;BME280;25147;52.142;9.960;2023-05-03T05:18:40;101648.38;;;1.16;97.42
39443;BME280;25147;52.142;9.960;2023-05-03T05:21:07;101919.75;;;2.90;97.67
39443;BME280;25147;52.142;9.960;2023-05-03T05:23:34;101920.00;;;2.96;97.82
39443;BME280;25147;52.142;9.960;2023-05-03T05:26:02;101957.28;;;3.01;97.63
39443;BME280;25147;52.142;9.960;2023-05-03T05:28:29;101932.47;;;3.07;97.42
39443;BME280;25147;52.142;9.960;2023-05-03T05:30:56;101939.44;;;3.09;97.61
39443;BME280;25147;52.142;9.960;2023-05-03T05:33:23;101872.47;;;2.72;97.65
39443;BME280;25147;52.142;9.960;2023-05-03T05:35:50;101948.59;;;3.22;97.22
39443;BME280;25147;52.142;9.960;2023-05-03T05:38:17;101941.72;;;3.22;97.28
39443;BME280;25147;52.142;9.960;2023-05-03T05:40:44;101914.88;;;2.98;97.43
39443;BME280;25147;52.142;9.960;2023-05-03T05:43:12;101690.16;;;1.91;97.37
39443;BME280;25147;52.142;9.960;2023-05-03T05:45:39;101864.66;;;2.93;97.44
39443;BME280;25147;52.142;9.960;2023-05-03T05:48:07;101871.94;;;3.03;97.65
39443;BME280;25147;52.142;9.960;2023-05-03T05:50:33;101959.69;;;3.65;97.51
39443;BME280;25147;52.142;9.960;2023-05-03T05:53:01;101979.13;;;3.77;97.21
39443;BME280;25147;52.142;9.960;2023-05-03T05:55:28;101975.19;;;3.87;96.97
39443;BME280;25147;52.142;9.960;2023-05-03T05:57:55;101928.88;;;3.72;96.66
39443;BME280;25147;52.142;9.960;2023-05-03T06:00:23;101681.06;;;2.24;95.84
39443;BME280;25147;52.142;9.960;2023-05-03T06:02:50;101759.69;;;2.98;95.63
39443;BME280;25147;52.142;9.960;2023-05-03T06:05:17;101612.78;;;2.17;95.35
39443;BME280;25147;52.142;9.960;2023-05-03T06:07:44;101657.91;;;2.49;95.55
39443;BME280;25147;52.142;9.960;2023-05-03T06:10:11;101968.50;;;4.43;95.19
39443;BME280;25147;52.142;9.960;2023-05-03T06:12:38;101915.22;;;4.26;95.02
39443;BME280;25147;52.142;9.960;2023-05-03T06:15:06;101881.78;;;4.08;94.91
39443;BME280;25147;52.142;9.960;2023-05-03T06:17:35;101958.25;;;4.72;94.51
39443;BME280;25147;52.142;9.960;2023-05-03T06:20:02;101961.13;;;4.81;93.43
39443;BME280;25147;52.142;9.960;2023-05-03T06:22:29;101719.00;;;3.44;92.50
39443;BME280;25147;52.142;9.960;2023-05-03T06:24:56;101706.22;;;3.48;92.40
39443;BME280;25147;52.142;9.960;2023-05-03T06:27:23;101767.22;;;3.93;92.07
39443;BME280;25147;52.142;9.960;2023-05-03T06:29:50;101962.19;;;5.15;91.63
39443;BME280;25147;52.142;9.960;2023-05-03T06:32:17;101960.72;;;5.23;91.51
39443;BME280;25147;52.142;9.960;2023-05-03T06:34:47;101961.59;;;5.24;90.92
39443;BME280;25147;52.142;9.960;2023-05-03T06:37:14;101940.69;;;5.21;90.19
39443;BME280;25147;52.142;9.960;2023-05-03T06:39:40;101776.25;;;4.31;89.90
39443;BME280;25147;52.142;9.960;2023-05-03T06:42:07;101830.63;;;4.57;89.75
39443;BME280;25147;52.142;9.960;2023-05-03T06:44:34;101904.97;;;5.12;89.44
39443;BME280;25147;52.142;9.960;2023-05-03T06:47:01;101933.50;;;5.39;89.35
39443;BME280;25147;52.142;9.960;2023-05-03T06:49:28;101844.66;;;4.91;88.50
39443;BME280;25147;52.142;9.960;2023-05-03T06:51:56;101632.19;;;3.82;87.58
39443;BME280;25147;52.142;9.960;2023-05-03T06:54:23;101855.69;;;5.14;86.28
39443;BME280;25147;52.142;9.960;2023-05-03T06:56:49;101794.38;;;4.87;82.68
39443;BME280;25147;52.142;9.960;2023-05-03T06:59:16;101984.44;;;6.27;80.15
39443;BME280;25147;52.142;9.960;2023-05-03T07:01:43;101982.06;;;6.34;79.45
39443;BME280;25147;52.142;9.960;2023-05-03T07:04:11;101984.00;;;6.41;79.06
39443;BME280;25147;52.142;9.960;2023-05-03T07:06:38;101976.47;;;6.52;78.52
39443;BME280;25147;52.142;9.960;2023-05-03T07:09:09;101964.78;;;6.36;76.26
39443;BME280;25147;52.142;9.960;2023-05-03T07:11:36;101741.72;;;5.23;75.59
39443;BME280;25147;52.142;9.960;2023-05-03T07:14:05;101977.72;;;6.68;75.06
39443;BME280;25147;52.142;9.960;2023-05-03T07:16:32;102027.25;;;6.71;75.33
39443;BME280;25147;52.142;9.960;2023-05-03T07:18:59;101824.66;;;5.82;74.41
39443;BME280;25147;52.142;9.960;2023-05-03T07:21:26;101968.50;;;6.81;73.15
39443;BME280;25147;52.142;9.960;2023-05-03T07:23:54;101818.16;;;5.98;73.23
39443;BME280;25147;52.142;9.960;2023-05-03T07:26:22;101979.44;;;7.02;72.75
39443;BME280;25147;52.142;9.960;2023-05-03T07:28:51;101677.16;;;5.35;71.18
39443;BME280;25147;52.142;9.960;2023-05-03T07:31:18;101490.84;;;4.22;70.05
39443;BME280;25147;52.142;9.960;2023-05-03T07:33:46;101977.25;;;7.21;69.74
39443;BME280;25147;52.142;9.960;2023-05-03T07:36:13;101950.09;;;7.11;69.08
39443;BME280;25147;52.142;9.960;2023-05-03T07:38:40;101976.00;;;7.43;68.62
39443;BME280;25147;52.142;9.960;2023-05-03T07:41:07;101979.63;;;7.50;67.99
39443;BME280;25147;52.142;9.960;2023-05-03T07:43:36;101976.22;;;7.54;68.31
39443;BME280;25147;52.142;9.960;2023-05-03T07:46:03;101820.06;;;6.40;67.26
39443;BME280;25147;52.142;9.960;2023-05-03T07:48:30;101520.97;;;4.83;67.02
39443;BME280;25147;52.142;9.960;2023-05-03T07:50:57;101783.56;;;6.35;67.73
39443;BME280;25147;52.142;9.960;2023-05-03T07:53:25;101984.91;;;7.54;67.73
39443;BME280;25147;52.142;9.960;2023-05-03T07:55:53;102004.25;;;7.64;66.51
39443;BME280;25147;52.142;9.960;2023-05-03T07:58:21;101976.69;;;7.77;66.30
39443;BME280;25147;52.142;9.960;2023-05-03T08:00:49;101856.66;;;7.25;65.72
39443;BME280;25147;52.142;9.960;2023-05-03T08:03:16;101978.97;;;8.02;64.15
39443;BME280;25147;52.142;9.960;2023-05-03T08:05:44;101816.59;;;7.20;64.54
39443;BME280;25147;52.142;9.960;2023-05-03T08:08:11;101575.13;;;5.79;64.20
39443;BME280;25147;52.142;9.960;2023-05-03T08:10:38;101712.75;;;6.91;63.13
39443;BME280;25147;52.142;9.960;2023-05-03T08:13:06;101476.31;;;5.35;62.59
39443;BME280;25147;52.142;9.960;2023-05-03T08:15:33;101818.97;;;7.52;62.44
39443;BME280;25147;52.142;9.960;2023-05-03T08:18:01;101988.41;;;8.41;63.05
39443;BME280;25147;52.142;9.960;2023-05-03T08:20:28;101985.91;;;8.48;62.55
39443;BME280;25147;52.142;9.960;2023-05-03T08:22:55;101801.66;;;7.55;62.51
39443;BME280;25147;52.142;9.960;2023-05-03T08:25:23;101895.59;;;8.09;62.19
39443;BME280;25147;52.142;9.960;2023-05-03T08:27:50;101741.25;;;7.29;62.08
39443;BME280;25147;52.142;9.960;2023-05-03T08:30:18;101872.81;;;7.98;61.73
39443;BME280;25147;52.142;9.960;2023-05-03T08:32:46;101980.72;;;8.49;61.85
39443;BME280;25147;52.142;9.960;2023-05-03T08:35:15;101506.84;;;5.85;61.65
39443;BME280;25147;52.142;9.960;2023-05-03T08:37:43;101873.75;;;8.03;62.02
39443;BME280;25147;52.142;9.960;2023-05-03T08:40:10;101961.69;;;8.56;61.09
39443;BME280;25147;52.142;9.960;2023-05-03T08:42:39;101954.78;;;8.60;60.88
39443;BME280;25147;52.142;9.960;2023-05-03T08:45:09;101917.00;;;8.39;60.45
39443;BME280;25147;52.142;9.960;2023-05-03T08:47:36;101721.44;;;7.37;59.44
39443;BME280;25147;52.142;9.960;2023-05-03T08:50:06;101979.44;;;8.76;59.24
39443;BME280;25147;52.142;9.960;2023-05-03T08:52:35;101642.97;;;6.72;59.37
39443;BME280;25147;52.142;9.960;2023-05-03T08:55:03;101960.47;;;8.89;59.13
39443;BME280;25147;52.142;9.960;2023-05-03T08:57:32;101969.38;;;9.00;59.01
39443;BME280;25147;52.142;9.960;2023-05-03T09:00:00;101801.03;;;8.20;58.79
39443;BME280;25147;52.142;9.960;2023-05-03T09:02:30;101872.38;;;8.76;58.45
39443;BME280;25147;52.142;9.960;2023-05-03T09:04:59;101954.13;;;9.31;57.97
39443;BME280;25147;52.142;9.960;2023-05-03T09:07:26;101720.56;;;7.90;57.02
39443;BME280;25147;52.142;9.960;2023-05-03T09:09:55;101663.66;;;7.63;57.43
39443;BME280;25147;52.142;9.960;2023-05-03T09:12:34;101959.34;;;9.28;58.15
39443;BME280;25147;52.142;9.960;2023-05-03T09:15:02;101989.84;;;9.31;57.79
39443;BME280;25147;52.142;9.960;2023-05-03T09:17:31;101856.72;;;8.76;57.49
39443;BME280;25147;52.142;9.960;2023-05-03T09:19:58;101944.53;;;9.29;58.18
39443;BME280;25147;52.142;9.960;2023-05-03T09:22:27;101905.97;;;9.12;58.25
39443;BME280;25147;52.142;9.960;2023-05-03T09:24:57;101730.22;;;7.96;57.32
39443;BME280;25147;52.142;9.960;2023-05-03T09:27:25;101950.59;;;9.28;57.19
39443;BME280;25147;52.142;9.960;2023-05-03T09:29:53;101953.00;;;9.14;56.91
39443;BME280;25147;52.142;9.960;2023-05-03T09:32:21;101951.97;;;9.02;57.89
39443;BME280;25147;52.142;9.960;2023-05-03T09:34:49;101915.22;;;8.89;58.22
39443;BME280;25147;52.142;9.960;2023-05-03T09:37:16;101948.47;;;9.00;58.45
39443;BME280;25147;52.142;9.960;2023-05-03T09:39:44;101909.00;;;8.80;57.96
39443;BME280;25147;52.142;9.960;2023-05-03T09:42:14;101908.06;;;8.77;57.66
39443;BME280;25147;52.142;9.960;2023-05-03T09:44:43;101952.78;;;8.98;56.84
39443;BME280;25147;52.142;9.960;2023-05-03T09:47:14;101749.03;;;7.76;57.15
39443;BME280;25147;52.142;9.960;2023-05-03T09:49:41;101801.75;;;8.10;57.24
39443;BME280;25147;52.142;9.960;2023-05-03T09:52:09;101720.06;;;7.59;57.52
39443;BME280;25147;52.142;9.960;2023-05-03T09:54:37;101479.47;;;6.02;57.87
39443;BME280;25147;52.142;9.960;2023-05-03T09:57:05;101705.06;;;7.46;57.52
39443;BME280;25147;52.142;9.960;2023-05-03T09:59:35;101789.31;;;7.94;58.22
39443;BME280;25147;52.142;9.960;2023-05-03T10:02:08;101645.13;;;6.96;58.35
39443;BME280;25147;52.142;9.960;2023-05-03T10:04:38;101688.53;;;7.44;58.58
39443;BME280;25147;52.142;9.960;2023-05-03T10:07:12;101773.59;;;7.91;57.91
39443;BME280;25147;52.142;9.960;2023-05-03T10:09:42;101648.38;;;7.31;57.50
39443;BME280;25147;52.142;9.960;2023-05-03T10:12:11;101743.78;;;7.75;57.99
39443;BME280;25147;52.142;9.960;2023-05-03T10:14:41;101662.19;;;7.27;58.27
39443;BME280;25147;52.142;9.960;2023-05-03T10:17:17;101722.97;;;7.76;58.93
39443;BME280;25147;52.142;9.960;2023-05-03T10:19:50;101561.84;;;6.97;59.05
39443;BME280;25147;52.142;9.960;2023-05-03T10:22:19;101695.88;;;7.68;59.09
39443;BME280;25147;52.142;9.960;2023-05-03T10:25:08;101925.31;;;9.25;57.18
39443;BME280;25147;52.142;9.960;2023-05-03T10:27:49;101788.25;;;8.37;57.28
39443;BME280;25147;52.142;9.960;2023-05-03T10:30:28;101537.75;;;7.09;57.68
39443;BME280;25147;52.142;9.960;2023-05-03T10:32:57;101809.56;;;8.67;56.83
39443;BME280;25147;52.142;9.960;2023-05-03T10:35:28;101917.78;;;9.50;57.21
39443;BME280;25147;52.142;9.960;2023-05-03T10:37:56;101656.41;;;8.01;57.15
39443;BME280;25147;52.142;9.960;2023-05-03T10:40:23;101916.22;;;9.64;57.46
39443;BME280;25147;52.142;9.960;2023-05-03T10:42:51;101894.41;;;9.63;57.52
39443;BME280;25147;52.142;9.960;2023-05-03T10:45:22;101800.44;;;9.01;57.51
39443;BME280;25147;52.142;9.960;2023-05-03T10:48:16;101910.44;;;9.94;56.44
39443;BME280;25147;52.142;9.960;2023-05-03T10:50:45;101700.94;;;8.78;55.55
39443;BME280;25147;52.142;9.960;2023-05-03T10:53:36;101912.28;;;10.01;55.54
39443;BME280;25147;52.142;9.960;2023-05-03T10:56:05;101914.06;;;10.06;55.73
39443;BME280;25147;52.142;9.960;2023-05-03T10:58:35;101787.84;;;9.39;54.75
39443;BME280;25147;52.142;9.960;2023-05-03T11:01:03;101847.38;;;9.65;55.26
39443;BME280;25147;52.142;9.960;2023-05-03T11:03:42;101843.81;;;9.57;56.09
39443;BME280;25147;52.142;9.960;2023-05-03T11:06:26;101838.53;;;9.54;55.73
39443;BME280;25147;52.142;9.960;2023-05-03T11:08:53;101908.75;;;9.98;56.27
39443;BME280;25147;52.142;9.960;2023-05-03T11:11:20;101905.25;;;9.97;56.55
39443;BME280;25147;52.142;9.960;2023-05-03T11:13:49;101916.59;;;9.98;56.34
39443;BME280;25147;52.142;9.960;2023-05-03T11:16:16;101599.94;;;8.03;55.82
39443;BME280;25147;52.142;9.960;2023-05-03T11:18:44;101877.22;;;9.86;55.43
39443;BME280;25147;52.142;9.960;2023-05-03T11:21:13;101911.28;;;9.90;56.04
39443;BME280;25147;52.142;9.960;2023-05-03T11:23:41;101681.75;;;8.74;55.56
39443;BME280;25147;52.142;9.960;2023-05-03T11:26:09;101884.25;;;9.90;55.57
39443;BME280;25147;52.142;9.960;2023-05-03T11:28:37;101852.72;;;9.77;55.56
39443;BME280;25147;52.142;9.960;2023-05-03T11:31:04;101763.22;;;9.19;55.60
39443;BME280;25147;52.142;9.960;2023-05-03T11:33:32;101712.56;;;9.06;55.28
39443;BME280;25147;52.142;9.960;2023-05-03T11:36:02;101632.91;;;8.66;55.70
39443;BME280;25147;52.142;9.960;2023-05-03T11:38:30;101838.69;;;9.69;55.86
39443;BME280;25147;52.142;9.960;2023-05-03T11:40:59;101732.81;;;9.24;55.41
39443;BME280;25147;52.142;9.960;2023-05-03T11:43:26;101893.22;;;10.19;56.21
39443;BME280;25147;52.142;9.960;2023-05-03T11:45:58;101732.91;;;9.35;55.29
39443;BME280;25147;52.142;9.960;2023-05-03T11:48:25;101805.66;;;9.80;55.48
39443;BME280;25147;52.142;9.960;2023-05-03T11:50:53;101872.34;;;10.25;55.68
39443;BME280;25147;52.142;9.960;2023-05-03T11:53:23;101845.03;;;9.94;55.88
39443;BME280;25147;52.142;9.960;2023-05-03T11:55:51;101789.97;;;9.77;54.61
39443;BME280;25147;52.142;9.960;2023-05-03T11:58:20;101861.00;;;10.22;54.54
39443;BME280;25147;52.142;9.960;2023-05-03T12:00:49;101579.69;;;8.53;54.66
39443;BME280;25147;52.142;9.960;2023-05-03T12:03:17;101710.16;;;9.24;55.19
39443;BME280;25147;52.142;9.960;2023-05-03T12:05:44;101785.47;;;9.66;55.35
39443;BME280;25147;52.142;9.960;2023-05-03T12:08:12;101886.25;;;10.18;55.24
39443;BME280;25147;52.142;9.960;2023-05-03T12:10:41;101888.03;;;10.21;55.54
39443;BME280;25147;52.142;9.960;2023-05-03T12:13:08;101854.72;;;10.04;54.10
39443;BME280;25147;52.142;9.960;2023-05-03T12:15:37;101850.56;;;10.27;54.51
39443;BME280;25147;52.142;9.960;2023-05-03T12:18:06;101772.53;;;9.79;53.99
39443;BME280;25147;52.142;9.960;2023-05-03T12:20:34;101577.22;;;8.67;53.91
39443;BME280;25147;52.142;9.960;2023-05-03T12:23:03;101421.34;;;7.69;53.88
39443;BME280;25147;52.142;9.960;2023-05-03T12:25:32;101841.91;;;10.32;52.92
39443;BME280;25147;52.142;9.960;2023-05-03T12:28:06;101837.59;;;10.39;53.30
39443;BME280;25147;52.142;9.960;2023-05-03T12:30:33;101834.94;;;10.34;52.38
39443;BME280;25147;52.142;9.960;2023-05-03T12:33:00;101665.09;;;9.52;53.22
39443;BME280;25147;52.142;9.960;2023-05-03T12:35:27;101752.66;;;10.00;52.99
39443;BME280;25147;52.142;9.960;2023-05-03T12:38:07;101689.69;;;9.77;52.98
39443;BME280;25147;52.142;9.960;2023-05-03T12:40:34;101437.66;;;8.32;52.72
39443;BME280;25147;52.142;9.960;2023-05-03T12:43:03;101680.88;;;9.64;52.94
39443;BME280;25147;52.142;9.960;2023-05-03T12:45:30;101427.22;;;8.31;53.39
39443;BME280;25147;52.142;9.960;2023-05-03T12:47:58;101533.03;;;8.88;53.07
39443;BME280;25147;52.142;9.960;2023-05-03T12:50:24;101799.34;;;10.64;52.85
39443;BME280;25147;52.142;9.960;2023-05-03T12:52:51;101789.78;;;10.72;53.00
39443;BME280;25147;52.142;9.960;2023-05-03T12:55:18;101794.16;;;10.73;53.01
39443;BME280;25147;52.142;9.960;2023-05-03T12:57:45;101816.94;;;10.88;52.52
39443;BME280;25147;52.142;9.960;2023-05-03T13:00:14;101689.97;;;10.17;52.63
39443;BME280;25147;52.142;9.960;2023-05-03T13:02:42;101802.13;;;10.93;52.62
39443;BME280;25147;52.142;9.960;2023-05-03T13:05:08;101818.75;;;10.98;51.98